Thompson, North Dakota
Current Conditions -  °F | °C
As of 12:53 AM on Thursday 23 Oct 2014 (Local Time) from KGFK Reporting Station
Clear Clear  
Wind Chill: 42°   Ceiling: Unl
Heat Index: 46°   Visibility: 10mi
Dew Point: 45°   Wind: 7mph
Humidity: 96%   Direction: 230°SW
Pressure: 29.84"   Gusts: NA
Location:  47.77°N, 97.11°W
Report Text: KGFK 230553Z AUTO 23006KT 10SM CLR 08/07 A2984 RMK AO2 SLP110 T00780072 10128 20078 401780078 58000 TSNO
Loading
Personal Weather Stations






























Interactive Weather Map
Tropical Storm Tracking
New forecast layout! Learn more

10-Day Weather Forecast

Advertisements
Track Severe Weather on mobile